createdAt,value
2018-11-10T00:03:07.020Z,100470.91
2018-11-10T00:08:10.098Z,100465.20
2018-11-10T00:13:13.180Z,100460.85
2018-11-10T00:18:16.302Z,100448.85
2018-11-10T00:23:19.379Z,100435.41
2018-11-10T00:28:22.457Z,100444.16
2018-11-10T00:33:25.537Z,100430.56
2018-11-10T00:38:29.215Z,100434.81
2018-11-10T00:43:32.319Z,100428.98
2018-11-10T00:48:35.437Z,100421.80
2018-11-10T00:53:38.550Z,100424.52
2018-11-10T00:58:41.637Z,100410.45
2018-11-10T01:03:44.683Z,100415.70
2018-11-10T01:08:47.737Z,100399.85
2018-11-10T01:13:51.095Z,100392.13
2018-11-10T01:18:54.167Z,100383.13
2018-11-10T01:23:57.225Z,100391.01
2018-11-10T01:29:00.302Z,100384.77
2018-11-10T01:34:03.578Z,100370.94
2018-11-10T01:39:09.078Z,100377.08
2018-11-10T01:44:12.196Z,100359.37
2018-11-10T01:49:15.294Z,100357.81
2018-11-10T01:54:18.452Z,100352.56
2018-11-10T01:59:21.552Z,100341.13
2018-11-10T02:04:24.589Z,100334.94
2018-11-10T02:09:27.641Z,100330.67
2018-11-10T02:14:30.754Z,100321.72
2018-11-10T02:19:33.887Z,100327.58
2018-11-10T02:24:37.023Z,100322.55
2018-11-10T02:29:40.084Z,100313.89
2018-11-10T02:34:43.126Z,100309.09
2018-11-10T02:39:46.217Z,100300.22
2018-11-10T02:44:49.300Z,100295.92
2018-11-10T02:49:52.351Z,100293.83
2018-11-10T02:54:55.380Z,100283.86
2018-11-10T02:59:58.454Z,100276.66
2018-11-10T03:05:01.533Z,100271.63
2018-11-10T03:10:06.290Z,100259.21
2018-11-10T03:15:10.551Z,100262.80
2018-11-10T03:20:14.668Z,100243.48
2018-11-10T03:25:17.776Z,100234.31
2018-11-10T03:30:20.821Z,100226.45
2018-11-10T03:35:23.868Z,100222.67
2018-11-10T03:40:26.947Z,100203.97
2018-11-10T03:45:29.970Z,100191.00
2018-11-10T03:50:33.055Z,100187.84
2018-11-10T03:55:36.164Z,100183.36
2018-11-10T04:00:39.306Z,100188.53
2018-11-10T04:05:42.371Z,100196.33
2018-11-10T04:10:45.432Z,100198.70
2018-11-10T04:15:48.708Z,100193.00
2018-11-10T04:20:51.779Z,100191.67
2018-11-10T04:25:57.154Z,100190.59
2018-11-10T04:31:02.806Z,100182.38
2018-11-10T04:36:06.997Z,100174.41
2018-11-10T04:41:10.149Z,100038.07
2018-11-10T04:46:13.215Z,100169.13
2018-11-10T04:51:16.247Z,100150.80
2018-11-10T04:56:19.267Z,100149.30
2018-11-10T05:01:22.364Z,100146.73
2018-11-10T05:06:25.567Z,100147.45
2018-11-10T05:11:28.762Z,100136.08
2018-11-10T05:16:31.786Z,100132.59
2018-11-10T05:21:34.886Z,100129.23
2018-11-10T05:26:38.142Z,100130.41
2018-11-10T05:31:41.199Z,100126.75
2018-11-10T05:36:44.336Z,100115.78
2018-11-10T05:41:47.668Z,100100.31
2018-11-10T05:46:50.790Z,100093.74
2018-11-10T05:51:53.967Z,100087.31
2018-11-10T05:56:57.042Z,100083.68
2018-11-10T06:02:00.477Z,100074.39
2018-11-10T06:07:03.972Z,100080.87
2018-11-10T06:12:08.935Z,100069.50
2018-11-10T06:17:13.309Z,100070.36
2018-11-10T06:22:17.403Z,100059.56
2018-11-10T06:27:20.449Z,100064.41
2018-11-10T06:32:23.551Z,100070.63
2018-11-10T06:37:26.722Z,100070.98
2018-11-10T06:42:29.971Z,100074.47
2018-11-10T06:47:33.111Z,100066.77
2018-11-10T06:52:36.162Z,100079.91
2018-11-10T06:57:39.290Z,100086.09
2018-11-10T07:02:44.504Z,100085.54
2018-11-10T07:07:47.565Z,100066.00
2018-11-10T07:12:50.637Z,100073.25
2018-11-10T07:17:53.826Z,100076.65
2018-11-10T07:22:56.842Z,100095.97
2018-11-10T07:27:59.925Z,100085.41
2018-11-10T07:33:03.024Z,100096.59
2018-11-10T07:38:06.127Z,100096.27
2018-11-10T07:43:09.246Z,100098.27
2018-11-10T07:48:12.278Z,100109.31
2018-11-10T07:53:15.337Z,100119.97
2018-11-10T07:58:18.505Z,100118.05
2018-11-10T08:03:21.683Z,100115.72
2018-11-10T08:08:24.859Z,100126.06
2018-11-10T08:13:27.983Z,100130.19
2018-11-10T08:18:31.133Z,100131.69
2018-11-10T08:23:34.299Z,100138.18
2018-11-10T08:28:37.382Z,100137.54
2018-11-10T08:33:40.438Z,100148.06
2018-11-10T08:38:43.635Z,100147.88
2018-11-10T08:43:46.921Z,100155.08
2018-11-10T08:48:50.024Z,100158.75
2018-11-10T08:53:53.099Z,100154.33
2018-11-10T08:58:56.207Z,100154.91
2018-11-10T09:03:59.220Z,100160.66
2018-11-10T09:09:02.394Z,100166.41
2018-11-10T09:14:05.855Z,100174.61
2018-11-10T09:19:08.939Z,100165.50
2018-11-10T09:24:11.986Z,100157.41
2018-11-10T09:29:15.016Z,100163.70
2018-11-10T09:34:18.074Z,100168.61
2018-11-10T09:39:21.128Z,100162.30
2018-11-10T09:44:24.371Z,100154.69
2018-11-10T09:49:27.413Z,100154.03
2018-11-10T09:54:30.540Z,100143.38
2018-11-10T09:59:33.630Z,100143.44
2018-11-10T10:04:36.665Z,100137.89
2018-11-10T10:09:39.707Z,100129.13
2018-11-10T10:14:42.790Z,100124.40
2018-11-10T10:19:45.840Z,100120.45
2018-11-10T10:24:48.910Z,100113.08
2018-11-10T10:29:52.965Z,100108.35
2018-11-10T10:34:56.152Z,100110.37
2018-11-10T10:39:59.178Z,100112.31
2018-11-10T10:45:02.307Z,100111.66
2018-11-10T10:50:06.745Z,100111.82
2018-11-10T10:55:11.295Z,100117.88
2018-11-10T11:00:20.100Z,100104.50
2018-11-10T11:05:28.886Z,100110.67
2018-11-10T11:10:31.934Z,100109.13
2018-11-10T11:15:35.310Z,100106.52
2018-11-10T11:20:38.247Z,100104.91
2018-11-10T11:25:41.369Z,100097.16
2018-11-10T11:30:46.150Z,100092.38
2018-11-10T11:35:49.893Z,100090.11
2018-11-10T11:40:52.996Z,100093.59
2018-11-10T11:45:56.078Z,100092.45
2018-11-10T11:50:59.182Z,100099.25
2018-11-10T11:56:02.293Z,100100.52
2018-11-10T12:01:05.658Z,100094.95
2018-11-10T12:06:08.729Z,100096.17
2018-11-10T12:11:11.911Z,100087.34
2018-11-10T12:16:27.182Z,100091.56
2018-11-10T12:21:18.328Z,100091.67
2018-11-10T12:26:21.451Z,100086.02
2018-11-10T12:31:24.570Z,100085.92
2018-11-10T12:36:32.477Z,100087.34
2018-11-10T12:41:35.791Z,100093.38
2018-11-10T12:46:39.213Z,100082.34
2018-11-10T12:51:42.248Z,100082.73
2018-11-10T12:56:45.326Z,100081.23
2018-11-10T13:01:48.478Z,100080.76
2018-11-10T13:06:51.679Z,100076.80
2018-11-10T13:11:54.983Z,100072.55
2018-11-10T13:16:57.971Z,100072.00
2018-11-10T13:22:01.039Z,100076.05
2018-11-10T13:27:04.467Z,100073.41
2018-11-10T13:32:10.018Z,100068.69
2018-11-10T13:37:15.441Z,100066.80
2018-11-10T13:42:18.557Z,100068.22
2018-11-10T13:47:23.898Z,100069.59
2018-11-10T13:52:27.843Z,100060.20
2018-11-10T13:57:30.608Z,100062.23
2018-11-10T14:02:33.862Z,100060.64
2018-11-10T14:07:36.981Z,100061.22
2018-11-10T14:12:40.867Z,100056.14
2018-11-10T14:17:57.414Z,100053.62
2018-11-10T14:23:00.588Z,100052.67
2018-11-10T14:28:05.669Z,100043.19
2018-11-10T14:33:10.283Z,100042.34
2018-11-10T14:38:20.378Z,100031.54
2018-11-10T14:43:24.131Z,100044.83
2018-11-10T14:48:30.014Z,100042.09
2018-11-10T14:53:33.176Z,100042.09
2018-11-10T14:58:43.161Z,100048.39
2018-11-10T15:03:47.454Z,100047.27
2018-11-10T15:08:54.258Z,100046.70
2018-11-10T15:13:57.377Z,100051.22
2018-11-10T15:19:00.464Z,100060.15
2018-11-10T15:24:07.062Z,100064.80
2018-11-10T15:29:14.633Z,100079.66
2018-11-10T15:34:17.857Z,100069.47
2018-11-10T15:39:21.739Z,100068.35
2018-11-10T15:44:24.767Z,100072.30
2018-11-10T15:49:27.863Z,100072.11
2018-11-10T15:54:30.879Z,100068.75
2018-11-10T15:59:34.175Z,100073.42
2018-11-10T16:04:37.202Z,100069.30
2018-11-10T16:09:40.247Z,100068.15
2018-11-10T16:14:43.294Z,100063.06
2018-11-10T16:19:46.350Z,100068.70
2018-11-10T16:24:49.419Z,100067.29
2018-11-10T16:29:52.444Z,100059.87
2018-11-10T16:34:55.451Z,100058.82
2018-11-10T16:39:58.602Z,100053.45
2018-11-10T16:45:01.707Z,100055.98
2018-11-10T16:50:05.499Z,100038.73
2018-11-10T16:55:08.897Z,100047.30
2018-11-10T17:00:25.365Z,100049.02
2018-11-10T17:05:33.638Z,100050.44
2018-11-10T17:10:36.910Z,100051.77
2018-11-10T17:15:40.203Z,100056.84
2018-11-10T17:20:43.296Z,100054.04
2018-11-10T17:25:46.327Z,100062.41
2018-11-10T17:30:49.456Z,100062.66
2018-11-10T17:35:52.524Z,100059.55
2018-11-10T17:40:55.678Z,100056.41
2018-11-10T17:45:58.750Z,100059.59
2018-11-10T17:51:01.847Z,100054.81
2018-11-10T17:56:07.372Z,100052.28
2018-11-10T18:01:10.412Z,100050.47
2018-11-10T18:06:22.815Z,100047.28
2018-11-10T18:11:28.860Z,100048.91
2018-11-10T18:16:33.457Z,100057.58
2018-11-10T18:21:38.550Z,100054.59
2018-11-10T18:26:41.616Z,100062.46
2018-11-10T18:31:45.476Z,100069.90
2018-11-10T18:36:48.686Z,100070.91
2018-11-10T18:41:51.796Z,100068.64
2018-11-10T18:46:54.945Z,100067.23
2018-11-10T18:51:57.963Z,100052.62
2018-11-10T18:57:01.158Z,100059.78
2018-11-10T19:02:04.621Z,100060.89
2018-11-10T19:07:07.990Z,100069.02
2018-11-10T19:12:11.370Z,100066.09
2018-11-10T19:17:14.505Z,100067.22
2018-11-10T19:22:17.615Z,100065.05
2018-11-10T19:27:20.723Z,100068.45
2018-11-10T19:32:23.950Z,100061.39
2018-11-10T19:37:27.019Z,100055.81
2018-11-10T19:42:30.263Z,100055.52
2018-11-10T19:47:33.408Z,100061.89
2018-11-10T19:52:36.470Z,100059.20
2018-11-10T19:57:39.622Z,100063.63
2018-11-10T20:02:42.697Z,100080.21
2018-11-10T20:07:45.820Z,100088.67
2018-11-10T20:12:48.849Z,100090.09
2018-11-10T20:17:53.661Z,100091.98
2018-11-10T20:22:57.896Z,100088.02
2018-11-10T20:28:00.953Z,100095.83
2018-11-10T20:33:06.811Z,100081.63
2018-11-10T20:38:12.390Z,100080.31
2018-11-10T20:43:15.471Z,100079.75
2018-11-10T20:48:20.075Z,100064.95
2018-11-10T20:53:28.681Z,100064.59
2018-11-10T20:58:31.726Z,100059.22
2018-11-10T21:03:34.896Z,100059.69
2018-11-10T21:08:38.049Z,100069.30
2018-11-10T21:13:41.086Z,100066.57
2018-11-10T21:18:44.107Z,100057.81
2018-11-10T21:23:47.192Z,100055.92
2018-11-10T21:28:50.290Z,100065.16
2018-11-10T21:33:53.619Z,100062.12
2018-11-10T21:38:56.688Z,100055.47
2018-11-10T21:43:59.883Z,100054.31
2018-11-10T21:49:02.985Z,100057.60
2018-11-10T21:54:06.196Z,100061.36
2018-11-10T21:59:11.322Z,100063.33
2018-11-10T22:04:15.868Z,100070.42
2018-11-10T22:09:19.287Z,100073.52
2018-11-10T22:14:24.718Z,100071.55
2018-11-10T22:19:27.754Z,100075.70
2018-11-10T22:24:30.821Z,100069.77
2018-11-10T22:29:33.899Z,100081.36
2018-11-10T22:59:32.438Z,100069.42
2018-11-10T23:04:35.493Z,100077.68
2018-11-10T23:09:38.525Z,100063.47
2018-11-10T23:14:41.575Z,100065.08
2018-11-10T23:19:44.611Z,100067.97
2018-11-10T23:24:47.652Z,100077.19
2018-11-10T23:29:50.687Z,100079.83
2018-11-10T23:34:53.768Z,100072.78
2018-11-10T23:39:56.872Z,100078.92
2018-11-10T23:44:59.921Z,100080.23
2018-11-10T23:50:03.113Z,100084.36
2018-11-10T23:55:07.551Z,100085.77
